Time;durP1;ratioP1;P1;durP2;ratioP2;P2;SDS_P1;SDS_P2;PMS_P1;PMS_P2;Temp;Humidity;BMP_temperature;BMP_pressure;BME280_temperature;BME280_humidity;BME280_pressure;Samples;Min_cycle;Max_cycle;Signal;HPM_P1;HPM_P2
2023/01/04 00:01:42;;;;;;;;;;;;;;;-144.47;100.00;61586.06;5023588;28;19976;-77
2023/01/04 00:04:08;;;;;;;;;;;;;;;-144.47;100.00;61586.06;5023607;28;19917;-77
2023/01/04 00:06:33;;;;;;;;;;;;;;;-144.47;100.00;61586.06;5021926;28;19921;-77
2023/01/04 00:08:59;;;;;;;;;;;;;;;-144.47;100.00;61586.06;5024824;28;19953;-77
2023/01/04 00:11:24;;;;;;;;;;;;;;;-144.47;100.00;61586.06;5021035;28;19917;-78
2023/01/04 00:13:51;;;;;;;;;;;;;;;-144.47;100.00;61586.06;5024321;28;19972;-77
2023/01/04 00:16:18;;;;;;;;;;;;;;;-144.47;100.00;61586.06;5021812;28;19917;-77
2023/01/04 00:18:44;;;;;;;;;;;;;;;-144.47;100.00;61586.06;5023075;28;19918;-78
2023/01/04 00:21:12;;;;;;;;;;;;;;;-144.47;100.00;61586.06;5024469;28;19917;-78
2023/01/04 00:23:38;;;;;;;;;;;;;;;-144.47;100.00;61586.06;5024569;28;20011;-77
2023/01/04 00:26:07;;;;;;;;;;;;;;;-144.47;100.00;61586.06;5025252;28;19923;-77
2023/01/04 00:28:33;;;;;;;;;;;;;;;-144.47;100.00;61586.06;5023154;28;19917;-76
2023/01/04 00:31:03;;;;;;;;;;;;;;;-144.47;100.00;61586.06;5025137;28;20012;-76
2023/01/04 00:33:28;;;;;;;;;;;;;;;-144.47;100.00;61586.06;5018364;28;19979;-76
2023/01/04 00:35:53;;;;;;;;;;;;;;;-144.47;100.00;61586.06;5025451;28;19980;-77
2023/01/04 00:38:19;;;;;;;;;;;;;;;-144.47;100.00;61586.06;5021585;28;19921;-77
2023/01/04 00:40:44;;;;;;;;;;;;;;;-144.47;100.00;61586.06;5025149;28;19913;-77
2023/01/04 00:43:10;;;;;;;;;;;;;;;-144.47;100.00;61586.06;5024034;28;19986;-77
2023/01/04 00:45:35;;;;;;;;;;;;;;;-144.47;100.00;61586.06;5023336;28;19924;-77
2023/01/04 00:48:00;;;;;;;;;;;;;;;-144.47;100.00;61586.06;5025697;28;19921;-78
2023/01/04 00:50:26;;;;;;;;;;;;;;;-144.47;100.00;61586.06;5022652;28;19917;-77
2023/01/04 00:52:51;;;;;;;;;;;;;;;-144.47;100.00;61586.06;5025853;28;19917;-78
2023/01/04 00:55:17;;;;;;;;;;;;;;;-144.47;100.00;61586.06;5023426;28;19975;-75
2023/01/04 00:57:42;;;;;;;;;;;;;;;-144.47;100.00;61586.06;5024804;28;19917;-77
2023/01/04 01:00:08;;;;;;;;;;;;;;;-144.47;100.00;61586.06;5025543;28;19913;-79
2023/01/04 01:02:36;;;;;;;;;;;;;;;-144.47;100.00;61586.06;5023029;28;19940;-79
2023/01/04 01:05:02;;;;;;;;;;;;;;;-144.47;100.00;61586.06;5025681;28;20312;-79
2023/01/04 01:07:27;;;;;;;;;;;;;;;-144.47;100.00;61586.06;5022254;28;19921;-79
2023/01/04 01:09:52;;;;;;;;;;;;;;;-144.47;100.00;61586.06;5026282;28;19921;-79
2023/01/04 01:12:18;;;;;;;;;;;;;;;-144.47;100.00;61586.06;5022662;28;20050;-79
2023/01/04 01:14:43;;;;;;;;;;;;;;;-144.47;100.00;61586.06;5025035;28;19987;-78
2023/01/04 01:17:09;;;;;;;;;;;;;;;-144.47;100.00;61586.06;5025879;28;19916;-79
2023/01/04 01:19:35;;;;;;;;;;;;;;;-144.47;100.00;61586.06;5022280;28;19921;-80
2023/01/04 01:22:00;;;;;;;;;;;;;;;-144.47;100.00;61586.06;5026139;28;20341;-79
2023/01/04 01:24:26;;;;;;;;;;;;;;;-144.47;100.00;61586.06;5025658;28;19917;-78
2023/01/04 01:26:52;;;;;;;;;;;;;;;-144.47;100.00;61586.06;5038459;28;19918;-78
2023/01/04 01:29:17;;;;;;;;;;;;;;;-144.47;100.00;61586.06;5029192;28;19921;-78
2023/01/04 01:31:42;;;;;;;;;;;;;;;-144.47;100.00;61586.06;5020503;28;19989;-79
2023/01/04 01:34:08;;;;;;;;;;;;;;;-144.47;100.00;61586.06;5023864;28;20004;-79
2023/01/04 01:36:35;;;;;;;;;;;;;;;-144.47;100.00;61586.06;5023465;28;20354;-80
2023/01/04 01:39:00;;;;;;;;;;;;;;;-144.47;100.00;61586.06;5026062;28;19962;-79
2023/01/04 01:41:27;;;;;;;;;;;;;;;-144.47;100.00;61586.06;5022693;28;19918;-79
2023/01/04 01:43:56;;;;;;;;;;;;;;;-144.47;100.00;61586.06;5026407;28;19917;-79
2023/01/04 01:46:35;;;;;;;;;;;;;;;-144.47;100.00;61586.06;5022431;28;19940;-78
2023/01/04 01:49:05;;;;;;;;;;;;;;;-144.47;100.00;61586.06;5022711;28;20384;-80
2023/01/04 01:51:32;;;;;;;;;;;;;;;-144.47;100.00;61586.06;5022495;28;20662;-78
2023/01/04 01:54:02;;;;;;;;;;;;;;;-144.47;100.00;61586.06;5023492;28;19921;-78
2023/01/04 01:56:29;;;;;;;;;;;;;;;-144.47;100.00;61586.06;5019601;28;20262;-79
2023/01/04 01:58:57;;;;;;;;;;;;;;;-144.47;100.00;61586.06;5025127;28;20423;-78
2023/01/04 02:01:22;;;;;;;;;;;;;;;-144.47;100.00;61586.06;5021886;28;19925;-78
2023/01/04 02:03:48;;;;;;;;;;;;;;;-144.47;100.00;61586.06;5024422;28;19921;-79
2023/01/04 02:06:17;;;;;;;;;;;;;;;-144.47;100.00;61586.06;5025250;28;19943;-78
2023/01/04 02:08:44;;;;;;;;;;;;;;;-144.47;100.00;61586.06;5026212;28;19928;-78
2023/01/04 02:11:10;;;;;;;;;;;;;;;-144.47;100.00;61586.06;5025813;28;19937;-78
2023/01/04 02:16:27;;;;;;;;;;;;;;;-144.47;100.00;61586.06;5024371;28;20313;-78
2023/01/04 02:19:00;;;;;;;;;;;;;;;-144.47;100.00;61586.06;5027047;28;20373;-77
2023/01/04 02:21:31;;;;;;;;;;;;;;;-144.47;100.00;61586.06;5019566;28;20373;-78
2023/01/04 02:24:14;;;;;;;;;;;;;;;-144.47;100.00;61586.06;5027383;28;19927;-78
2023/01/04 02:26:45;;;;;;;;;;;;;;;-144.47;100.00;61586.06;5023164;28;19917;-78
2023/01/04 02:29:33;;;;;;;;;;;;;;;-144.47;100.00;61586.06;5025270;28;19917;-77
2023/01/04 02:32:09;;;;;;;;;;;;;;;-144.47;100.00;61586.06;5026734;28;20388;-78
2023/01/04 02:34:37;;;;;;;;;;;;;;;-144.47;100.00;61586.06;5024035;28;20651;-78
2023/01/04 02:37:03;;;;;;;;;;;;;;;-144.47;100.00;61586.06;5025886;28;19996;-78
2023/01/04 02:39:28;;;;;;;;;;;;;;;-144.47;100.00;61586.06;5022961;28;20028;-76
2023/01/04 02:42:03;;;;;;;;;;;;;;;-144.47;100.00;61586.06;5026371;28;19943;-78
2023/01/04 02:50:29;;;;;;;;;;;;;;;-144.47;100.00;61586.06;5023473;28;20389;-78
2023/01/04 02:50:32;;;;;;;;;;;;;;;-144.47;100.00;61586.06;5026337;28;20373;-78
2023/01/04 02:53:04;;;;;;;;;;;;;;;-144.47;100.00;61586.06;5025939;28;19924;-79
2023/01/04 02:55:39;;;;;;;;;;;;;;;-144.47;100.00;61586.06;5020758;28;20431;-77
2023/01/04 02:58:23;;;;;;;;;;;;;;;-144.47;100.00;61586.06;5028993;28;20365;-79
2023/01/04 03:06:31;;;;;;;;;;;;;;;-144.47;100.00;61586.06;5020128;28;19924;-78
2023/01/04 03:09:03;;;;;;;;;;;;;;;-144.47;100.00;61586.06;5024623;28;19918;-77
2023/01/04 03:14:36;;;;;;;;;;;;;;;-144.47;100.00;61586.06;5022025;28;20381;-78
2023/01/04 03:17:04;;;;;;;;;;;;;;;-144.47;100.00;61586.06;5027800;28;20004;-77
2023/01/04 03:36:10;;;;;;;;;;;;;;;-144.47;100.00;61586.06;5021735;28;19913;-79
2023/01/04 03:49:56;;;;;;;;;;;;;;;-144.47;100.00;61586.06;5024549;28;19928;-79
2023/01/04 03:52:25;;;;;;;;;;;;;;;-144.47;100.00;61586.06;5021927;28;19924;-79
2023/01/04 03:54:51;;;;;;;;;;;;;;;-144.47;100.00;61586.06;5025699;28;20369;-78
2023/01/04 03:57:17;;;;;;;;;;;;;;;-144.47;100.00;61586.06;5019860;28;19921;-79
2023/01/04 03:59:52;;;;;;;;;;;;;;;-144.47;100.00;61586.06;5022663;28;19950;-78
2023/01/04 04:02:22;;;;;;;;;;;;;;;-144.47;100.00;61586.06;5025262;28;20282;-78
2023/01/04 04:10:15;;;;;;;;;;;;;;;-144.47;100.00;61586.06;5022750;28;19917;-79
2023/01/04 04:12:40;;;;;;;;;;;;;;;-144.47;100.00;61586.06;5024372;28;19924;-80
2023/01/04 04:15:06;;;;;;;;;;;;;;;-144.47;100.00;61586.06;5021329;28;19918;-79
2023/01/04 04:17:31;;;;;;;;;;;;;;;-144.47;100.00;61586.06;5021843;28;20396;-79
2023/01/04 04:19:57;;;;;;;;;;;;;;;-144.47;100.00;61586.06;5028198;28;19921;-79
2023/01/04 04:22:22;;;;;;;;;;;;;;;-144.47;100.00;61586.06;5036246;28;19964;-79
2023/01/04 04:24:48;;;;;;;;;;;;;;;-144.47;100.00;61586.06;5020830;28;19924;-79
2023/01/04 04:27:13;;;;;;;;;;;;;;;-144.47;100.00;61586.06;5040610;28;19917;-78
2023/01/04 04:29:38;;;;;;;;;;;;;;;-144.47;100.00;61586.06;5041347;28;19917;-79
2023/01/04 04:32:04;;;;;;;;;;;;;;;-144.47;100.00;61586.06;5036835;28;19916;-78
2023/01/04 04:34:29;;;;;;;;;;;;;;;-144.47;100.00;61586.06;5021628;28;19917;-78
2023/01/04 04:36:55;;;;;;;;;;;;;;;-144.47;100.00;61586.06;5009363;28;19952;-79
2023/01/04 04:39:20;;;;;;;;;;;;;;;-144.47;100.00;61586.06;5025186;28;19916;-79
2023/01/04 04:41:46;;;;;;;;;;;;;;;-144.47;100.00;61586.06;5022948;28;19944;-78
2023/01/04 04:44:11;;;;;;;;;;;;;;;-144.47;100.00;61586.06;5022535;28;19924;-79
2023/01/04 04:46:37;;;;;;;;;;;;;;;-144.47;100.00;61586.06;5023565;28;19921;-79
2023/01/04 04:49:03;;;;;;;;;;;;;;;-144.47;100.00;61586.06;5024310;28;19917;-79
2023/01/04 04:51:28;;;;;;;;;;;;;;;-144.47;100.00;61586.06;5019557;28;19921;-79
2023/01/04 04:53:53;;;;;;;;;;;;;;;-144.47;100.00;61586.06;5024418;28;19944;-79
2023/01/04 04:56:19;;;;;;;;;;;;;;;-144.47;100.00;61586.06;5019949;28;19932;-79
2023/01/04 04:58:44;;;;;;;;;;;;;;;-144.47;100.00;61586.06;5022018;28;20016;-79
2023/01/04 05:01:10;;;;;;;;;;;;;;;-144.47;100.00;61586.06;5021814;28;19917;-79
2023/01/04 05:03:35;;;;;;;;;;;;;;;-144.47;100.00;61586.06;5022960;28;19921;-79
2023/01/04 05:06:01;;;;;;;;;;;;;;;-144.47;100.00;61586.06;5020497;28;19924;-79
2023/01/04 05:08:26;;;;;;;;;;;;;;;-144.47;100.00;61586.06;5023822;28;19917;-79
2023/01/04 05:10:52;;;;;;;;;;;;;;;-144.47;100.00;61586.06;5021137;28;19940;-77
2023/01/04 05:13:17;;;;;;;;;;;;;;;-144.47;100.00;61586.06;5022854;28;19928;-78
2023/01/04 05:15:45;;;;;;;;;;;;;;;-144.47;100.00;61586.06;5021992;28;20288;-78
2023/01/04 05:18:12;;;;;;;;;;;;;;;-144.47;100.00;61586.06;5023196;28;20284;-78
2023/01/04 05:20:38;;;;;;;;;;;;;;;-144.47;100.00;61586.06;5021094;28;19957;-79
2023/01/04 05:23:04;;;;;;;;;;;;;;;-144.47;100.00;61586.06;5023248;28;19917;-79
2023/01/04 05:25:29;;;;;;;;;;;;;;;-144.47;100.00;61586.06;5020107;28;19914;-79
2023/01/04 05:27:55;;;;;;;;;;;;;;;-144.47;100.00;61586.06;5016269;28;20017;-79
2023/01/04 05:33:05;;;;;;;;;;;;;;;-144.47;100.00;61586.06;5018297;28;20323;-78
2023/01/04 05:35:31;;;;;;;;;;;;;;;-144.47;100.00;61586.06;5022822;28;20006;-78
2023/01/04 05:37:57;;;;;;;;;;;;;;;-144.47;100.00;61586.06;5020271;28;19917;-79
2023/01/04 05:40:22;;;;;;;;;;;;;;;-144.47;100.00;61586.06;5022727;28;19932;-79
2023/01/04 05:42:48;;;;;;;;;;;;;;;-144.47;100.00;61586.06;5020963;28;19924;-78
2023/01/04 05:45:14;;;;;;;;;;;;;;;-144.47;100.00;61586.06;5021643;28;19917;-79
2023/01/04 05:47:40;;;;;;;;;;;;;;;-144.47;100.00;61586.06;5021256;28;19917;-78
2023/01/04 05:50:06;;;;;;;;;;;;;;;-144.47;100.00;61586.06;5022364;28;19917;-80
2023/01/04 05:52:32;;;;;;;;;;;;;;;-144.47;100.00;61586.06;5023948;28;19928;-79
2023/01/04 05:54:57;;;;;;;;;;;;;;;-144.47;100.00;61586.06;5019121;28;19925;-79
2023/01/04 05:57:23;;;;;;;;;;;;;;;-144.47;100.00;61586.06;5023289;28;19917;-79
2023/01/04 05:59:48;;;;;;;;;;;;;;;-144.47;100.00;61586.06;5021125;28;19917;-79
2023/01/04 06:02:16;;;;;;;;;;;;;;;-144.47;100.00;61586.06;5020948;28;19924;-79
2023/01/04 06:04:41;;;;;;;;;;;;;;;-144.47;100.00;61586.06;5021855;28;20285;-76
2023/01/04 06:07:07;;;;;;;;;;;;;;;-144.47;100.00;61586.06;5023110;28;19921;-80
2023/01/04 06:09:32;;;;;;;;;;;;;;;-144.47;100.00;61586.06;5020116;28;19921;-79
2023/01/04 06:11:58;;;;;;;;;;;;;;;-144.47;100.00;61586.06;5023996;28;19917;-79
2023/01/04 06:14:24;;;;;;;;;;;;;;;-144.47;100.00;61586.06;5020264;28;19924;-80
2023/01/04 06:16:50;;;;;;;;;;;;;;;-144.47;100.00;61586.06;5027110;28;19990;-78
2023/01/04 06:19:15;;;;;;;;;;;;;;;-144.47;100.00;61586.06;5020810;28;20015;-80
2023/01/04 06:21:40;;;;;;;;;;;;;;;-144.47;100.00;61586.06;5021541;28;19913;-79
2023/01/04 06:24:06;;;;;;;;;;;;;;;-144.47;100.00;61586.06;5022512;28;19923;-78
2023/01/04 06:26:31;;;;;;;;;;;;;;;-144.47;100.00;61586.06;5020085;28;19918;-78
2023/01/04 06:28:56;;;;;;;;;;;;;;;-144.47;100.00;61586.06;5023666;28;19924;-78
2023/01/04 06:31:22;;;;;;;;;;;;;;;-144.47;100.00;61586.06;5020651;28;19940;-79
2023/01/04 06:33:47;;;;;;;;;;;;;;;-144.47;100.00;61586.06;5022217;28;19921;-79
2023/01/04 06:36:13;;;;;;;;;;;;;;;-144.47;100.00;61586.06;5023270;28;19918;-79
2023/01/04 06:38:38;;;;;;;;;;;;;;;-144.47;100.00;61586.06;5026921;28;19921;-79
2023/01/04 06:41:04;;;;;;;;;;;;;;;-144.47;100.00;61586.06;5029129;28;19947;-77
2023/01/04 06:43:29;;;;;;;;;;;;;;;-144.47;100.00;61586.06;5028925;28;19917;-78
2023/01/04 06:45:54;;;;;;;;;;;;;;;-144.47;100.00;61586.06;5026062;28;19921;-79
2023/01/04 06:48:20;;;;;;;;;;;;;;;-144.47;100.00;61586.06;5031964;28;19914;-78
2023/01/04 06:50:45;;;;;;;;;;;;;;;-144.47;100.00;61586.06;5031876;28;19924;-80
2023/01/04 06:53:11;;;;;;;;;;;;;;;-144.47;100.00;61586.06;5032189;28;19917;-78
2023/01/04 06:55:36;;;;;;;;;;;;;;;-144.47;100.00;61586.06;5031136;28;19920;-79
2023/01/04 06:58:01;;;;;;;;;;;;;;;-144.47;100.00;61586.06;5033585;28;20384;-79
2023/01/04 07:00:27;;;;;;;;;;;;;;;-144.47;100.00;61586.06;5024643;28;19962;-79
2023/01/04 07:02:53;;;;;;;;;;;;;;;-144.47;100.00;61586.06;5029429;28;19961;-80
2023/01/04 07:05:18;;;;;;;;;;;;;;;-144.47;100.00;61586.06;5028681;28;19918;-80
2023/01/04 07:07:43;;;;;;;;;;;;;;;-144.47;100.00;61586.06;5030289;28;20053;-79
2023/01/04 07:10:09;;;;;;;;;;;;;;;-144.47;100.00;61586.06;5032162;28;20269;-81
2023/01/04 07:12:35;;;;;;;;;;;;;;;-144.47;100.00;61586.06;5032410;28;20032;-80
2023/01/04 07:15:00;;;;;;;;;;;;;;;-144.47;100.00;61586.06;5035432;28;19924;-79
2023/01/04 07:17:26;;;;;;;;;;;;;;;-144.47;100.00;61586.06;5034964;28;20430;-80
2023/01/04 07:19:51;;;;;;;;;;;;;;;-144.47;100.00;61586.06;5032219;28;19916;-82
2023/01/04 07:22:17;;;;;;;;;;;;;;;-144.47;100.00;61586.06;5030932;28;19921;-79
2023/01/04 07:24:42;;;;;;;;;;;;;;;-144.47;100.00;61586.06;5030040;28;19924;-79
2023/01/04 07:27:10;;;;;;;;;;;;;;;-144.47;100.00;61586.06;5029902;28;20414;-80
2023/01/04 07:29:36;;;;;;;;;;;;;;;-144.47;100.00;61586.06;5029925;28;19935;-79
2023/01/04 07:32:01;;;;;;;;;;;;;;;-144.47;100.00;61586.06;5028117;28;20324;-80
2023/01/04 07:34:28;;;;;;;;;;;;;;;-144.47;100.00;61586.06;5031663;28;19921;-80
2023/01/04 07:36:53;;;;;;;;;;;;;;;-144.47;100.00;61586.06;5027183;28;19971;-78
2023/01/04 07:39:19;;;;;;;;;;;;;;;-144.47;100.00;61586.06;5027870;28;20000;-79
2023/01/04 07:41:45;;;;;;;;;;;;;;;-144.47;100.00;61586.06;5026905;28;19924;-79
2023/01/04 07:44:13;;;;;;;;;;;;;;;-144.47;100.00;61586.06;5027502;28;20255;-80
2023/01/04 07:46:38;;;;;;;;;;;;;;;-144.47;100.00;61586.06;5027852;28;20331;-80
2023/01/04 07:49:04;;;;;;;;;;;;;;;-144.47;100.00;61586.06;5029417;28;20012;-79
2023/01/04 07:51:30;;;;;;;;;;;;;;;-144.47;100.00;61586.06;5024932;28;19918;-81
2023/01/04 07:53:55;;;;;;;;;;;;;;;-144.47;100.00;61586.06;5024111;28;19954;-78
2023/01/04 07:56:21;;;;;;;;;;;;;;;-144.47;100.00;61586.06;5023859;28;20395;-79
2023/01/04 07:58:47;;;;;;;;;;;;;;;-144.47;100.00;61586.06;5023838;28;19926;-79
2023/01/04 08:01:17;;;;;;;;;;;;;;;-144.47;100.00;61586.06;5026214;28;19917;-79
2023/01/04 08:03:43;;;;;;;;;;;;;;;-144.47;100.00;61586.06;5027773;28;19956;-79
2023/01/04 08:06:11;;;;;;;;;;;;;;;-144.47;100.00;61586.06;5026177;28;19924;-79
2023/01/04 08:08:36;;;;;;;;;;;;;;;-144.47;100.00;61586.06;5025805;28;19917;-78
2023/01/04 08:11:03;;;;;;;;;;;;;;;-144.47;100.00;61586.06;5027395;28;19917;-78
2023/01/04 08:13:29;;;;;;;;;;;;;;;-144.47;100.00;61586.06;5021486;28;20292;-78
2023/01/04 08:15:54;;;;;;;;;;;;;;;-144.47;100.00;61586.06;5025060;28;19917;-78
2023/01/04 08:18:20;;;;;;;;;;;;;;;-144.47;100.00;61586.06;5021909;28;19932;-75
2023/01/04 08:20:45;;;;;;;;;;;;;;;-144.47;100.00;61586.06;5023653;28;19917;-77
2023/01/04 08:23:11;;;;;;;;;;;;;;;-144.47;100.00;61586.06;5022248;28;20317;-77
2023/01/04 08:25:36;;;;;;;;;;;;;;;-144.47;100.00;61586.06;5022742;28;20000;-78
2023/01/04 08:28:02;;;;;;;;;;;;;;;-144.47;100.00;61586.06;5024568;28;19971;-77
2023/01/04 08:30:27;;;;;;;;;;;;;;;-144.47;100.00;61586.06;5020914;28;19976;-75
2023/01/04 08:32:53;;;;;;;;;;;;;;;-144.47;100.00;61586.06;5024517;28;19924;-77
2023/01/04 08:35:19;;;;;;;;;;;;;;;-144.47;100.00;61586.06;5021754;28;20355;-77
2023/01/04 08:37:44;;;;;;;;;;;;;;;-144.47;100.00;61586.06;5017161;28;19917;-76
2023/01/04 08:40:09;;;;;;;;;;;;;;;-144.47;100.00;61586.06;5018599;28;19917;-77
2023/01/04 08:42:35;;;;;;;;;;;;;;;-144.47;100.00;61586.06;5016474;28;20305;-76
2023/01/04 08:45:00;;;;;;;;;;;;;;;-144.47;100.00;61586.06;5016771;28;20013;-77
2023/01/04 08:47:29;;;;;;;;;;;;;;;-144.47;100.00;61586.06;5017516;28;19960;-76
2023/01/04 08:49:55;;;;;;;;;;;;;;;-144.47;100.00;61586.06;5016551;28;19952;-77
2023/01/04 08:52:20;;;;;;;;;;;;;;;-144.47;100.00;61586.06;5020289;28;19960;-77
2023/01/04 08:54:46;;;;;;;;;;;;;;;-144.47;100.00;61586.06;5020977;28;19944;-77
2023/01/04 08:57:12;;;;;;;;;;;;;;;-144.47;100.00;61586.06;5019844;28;19933;-77
2023/01/04 08:59:37;;;;;;;;;;;;;;;-144.47;100.00;61586.06;5017334;28;19923;-75
2023/01/04 09:02:03;;;;;;;;;;;;;;;-144.47;100.00;61586.06;5018980;28;20297;-78
2023/01/04 09:04:28;;;;;;;;;;;;;;;-144.47;100.00;61586.06;5018548;28;20062;-76
2023/01/04 09:06:53;;;;;;;;;;;;;;;-144.47;100.00;61586.06;5019256;28;19996;-80
2023/01/04 09:09:19;;;;;;;;;;;;;;;-144.47;100.00;61586.06;5019713;28;19917;-77
2023/01/04 09:11:44;;;;;;;;;;;;;;;-144.47;100.00;61586.06;5022305;28;19924;-78
2023/01/04 09:14:10;;;;;;;;;;;;;;;-144.47;100.00;61586.06;5022149;28;19987;-79
2023/01/04 09:16:36;;;;;;;;;;;;;;;-144.47;100.00;61586.06;5024166;28;19921;-79
2023/01/04 09:19:02;;;;;;;;;;;;;;;-144.47;100.00;61586.06;5023202;28;20262;-79
2023/01/04 09:21:28;;;;;;;;;;;;;;;-144.47;100.00;61586.06;5020411;28;19916;-77
2023/01/04 09:23:53;;;;;;;;;;;;;;;-144.47;100.00;61586.06;5018021;28;19921;-75
2023/01/04 09:26:22;;;;;;;;;;;;;;;-144.47;100.00;61586.06;5022880;28;19917;-76
2023/01/04 09:28:52;;;;;;;;;;;;;;;-144.47;100.00;61586.06;5016843;28;20285;-76
2023/01/04 09:31:19;;;;;;;;;;;;;;;-144.47;100.00;61586.06;5007390;28;20016;-76
2023/01/04 09:33:45;;;;;;;;;;;;;;;-144.47;100.00;61586.06;5004803;28;20340;-75
2023/01/04 09:36:12;;;;;;;;;;;;;;;-144.47;100.00;61586.06;5005250;28;19917;-78
2023/01/04 09:38:38;;;;;;;;;;;;;;;-144.47;100.00;61586.06;5007268;28;19929;-77
2023/01/04 09:41:17;;;;;;;;;;;;;;;-144.47;100.00;61586.06;5009995;28;19917;-78
2023/01/04 09:43:44;;;;;;;;;;;;;;;-144.47;100.00;61586.06;4998016;28;19986;-76
2023/01/04 09:46:14;;;;;;;;;;;;;;;-144.47;100.00;61586.06;4998741;28;19921;-75
2023/01/04 09:48:41;;;;;;;;;;;;;;;-144.47;100.00;61586.06;4999278;28;19928;-77
2023/01/04 09:51:11;;;;;;;;;;;;;;;-144.47;100.00;61586.06;4998377;28;19932;-74
2023/01/04 09:53:40;;;;;;;;;;;;;;;-144.47;100.00;61586.06;4996300;28;20602;-76
2023/01/04 09:56:15;;;;;;;;;;;;;;;-144.47;100.00;61586.06;4998161;28;20362;-75
2023/01/04 09:58:40;;;;;;;;;;;;;;;-144.47;100.00;61586.06;4999672;28;20535;-76
2023/01/04 10:01:13;;;;;;;;;;;;;;;-144.47;100.00;61586.06;4999020;28;19925;-75
2023/01/04 10:03:41;;;;;;;;;;;;;;;-144.47;100.00;61586.06;4997858;28;20120;-74
2023/01/04 10:06:11;;;;;;;;;;;;;;;-144.47;100.00;61586.06;4998737;28;19964;-76
2023/01/04 10:08:37;;;;;;;;;;;;;;;-144.47;100.00;61586.06;5013192;28;20295;-77
2023/01/04 10:11:05;;;;;;;;;;;;;;;-144.47;100.00;61586.06;5007619;28;19917;-78
2023/01/04 10:13:49;;;;;;;;;;;;;;;-144.47;100.00;61586.06;5002229;28;19918;-77
2023/01/04 10:16:35;;;;;;;;;;;;;;;-144.47;100.00;61586.06;5006503;28;19964;-78
2023/01/04 10:19:17;;;;;;;;;;;;;;;-144.47;100.00;61586.06;5022749;28;20293;-78
2023/01/04 10:21:55;;;;;;;;;;;;;;;-144.47;100.00;61586.06;5025201;28;19923;-76
2023/01/04 10:24:33;;;;;;;;;;;;;;;-144.47;100.00;61586.06;5018449;28;20016;-75
2023/01/04 10:27:04;;;;;;;;;;;;;;;-144.47;100.00;61586.06;5021876;28;19921;-76
2023/01/04 10:29:50;;;;;;;;;;;;;;;-144.47;100.00;61586.06;5020833;28;20646;-74
2023/01/04 10:32:34;;;;;;;;;;;;;;;-144.47;100.00;61586.06;5014971;28;19925;-74
2023/01/04 10:35:01;;;;;;;;;;;;;;;-144.47;100.00;61586.06;5021552;28;19918;-73
2023/01/04 10:37:32;;;;;;;;;;;;;;;-144.47;100.00;61586.06;5012336;28;19957;-76
2023/01/04 10:40:01;;;;;;;;;;;;;;;-144.47;100.00;61586.06;5023747;28;19966;-76
2023/01/04 10:42:29;;;;;;;;;;;;;;;-144.47;100.00;61586.06;5022718;28;19913;-77
2023/01/04 10:45:02;;;;;;;;;;;;;;;-144.47;100.00;61586.06;5030423;28;20281;-82
2023/01/04 10:47:32;;;;;;;;;;;;;;;-144.47;100.00;61586.06;5024353;28;19925;-79
2023/01/04 10:50:01;;;;;;;;;;;;;;;-144.47;100.00;61586.06;5027809;28;19971;-80
2023/01/04 10:52:26;;;;;;;;;;;;;;;-144.47;100.00;61586.06;5023741;28;19917;-81
2023/01/04 10:54:54;;;;;;;;;;;;;;;-144.47;100.00;61586.06;5028738;28;19924;-79
2023/01/04 10:57:26;;;;;;;;;;;;;;;-144.47;100.00;61586.06;5030546;28;19952;-78
2023/01/04 10:59:58;;;;;;;;;;;;;;;-144.47;100.00;61586.06;5015510;28;19925;-79
2023/01/04 11:02:29;;;;;;;;;;;;;;;-144.47;100.00;61586.06;5023366;28;19944;-77
2023/01/04 11:04:58;;;;;;;;;;;;;;;-144.47;100.00;61586.06;5017823;28;20293;-76
2023/01/04 11:07:27;;;;;;;;;;;;;;;-144.47;100.00;61586.06;5023250;28;19924;-78
2023/01/04 11:10:05;;;;;;;;;;;;;;;-144.47;100.00;61586.06;5026765;28;20281;-78
2023/01/04 11:12:31;;;;;;;;;;;;;;;-144.47;100.00;61586.06;5017996;28;20011;-79
2023/01/04 11:14:56;;;;;;;;;;;;;;;-144.47;100.00;61586.06;5027013;28;19968;-82
2023/01/04 11:17:23;;;;;;;;;;;;;;;-144.47;100.00;61586.06;5023751;28;19917;-79
2023/01/04 11:19:49;;;;;;;;;;;;;;;-144.47;100.00;61586.06;5024648;28;19964;-80
2023/01/04 11:22:15;;;;;;;;;;;;;;;-144.47;100.00;61586.06;5023418;28;19921;-83
2023/01/04 11:24:41;;;;;;;;;;;;;;;-144.47;100.00;61586.06;5027188;28;19948;-78
2023/01/04 11:27:12;;;;;;;;;;;;;;;-144.47;100.00;61586.06;5038224;28;19921;-85
2023/01/04 11:29:40;;;;;;;;;;;;;;;-144.47;100.00;61586.06;5036070;28;19929;-79
2023/01/04 11:32:24;;;;;;;;;;;;;;;-144.47;100.00;61586.06;5033413;28;19924;-85
2023/01/04 11:34:52;;;;;;;;;;;;;;;-144.47;100.00;61586.06;5034373;28;19921;-85
2023/01/04 11:37:38;;;;;;;;;;;;;;;-144.47;100.00;61586.06;5029519;28;20569;-85
2023/01/04 11:40:15;;;;;;;;;;;;;;;-144.47;100.00;61586.06;5025557;28;19918;-82
2023/01/04 11:42:42;;;;;;;;;;;;;;;-144.47;100.00;61586.06;5017339;28;19924;-81
2023/01/04 11:45:17;;;;;;;;;;;;;;;-144.47;100.00;61586.06;5022520;28;19947;-78
2023/01/04 11:47:46;;;;;;;;;;;;;;;-144.47;100.00;61586.06;5024297;28;20011;-79
2023/01/04 11:50:32;;;;;;;;;;;;;;;-144.47;100.00;61586.06;5025699;28;19917;-79
2023/01/04 11:52:57;;;;;;;;;;;;;;;-144.47;100.00;61586.06;5031939;28;20524;-84
2023/01/04 11:55:28;;;;;;;;;;;;;;;-144.47;100.00;61586.06;5034923;28;19917;-84
2023/01/04 11:58:08;;;;;;;;;;;;;;;-144.47;100.00;61586.06;5035075;28;19917;-84
2023/01/04 12:00:33;;;;;;;;;;;;;;;-144.47;100.00;61586.06;5031781;28;19960;-79
2023/01/04 12:03:16;;;;;;;;;;;;;;;-144.47;100.00;61586.06;5031781;28;19988;-80
2023/01/04 12:05:41;;;;;;;;;;;;;;;-144.47;100.00;61586.06;5024016;28;19917;-83
2023/01/04 12:08:20;;;;;;;;;;;;;;;-144.47;100.00;61586.06;5023485;28;19927;-78
2023/01/04 12:10:45;;;;;;;;;;;;;;;-144.47;100.00;61586.06;5024178;28;20725;-78
2023/01/04 12:13:12;;;;;;;;;;;;;;;-144.47;100.00;61586.06;5031667;28;20347;-79
2023/01/04 12:15:41;;;;;;;;;;;;;;;-144.47;100.00;61586.06;5028085;28;19975;-78
2023/01/04 12:18:14;;;;;;;;;;;;;;;-144.47;100.00;61586.06;5030285;28;19921;-78
2023/01/04 12:20:40;;;;;;;;;;;;;;;-144.47;100.00;61586.06;5022053;28;19918;-78
2023/01/04 12:23:08;;;;;;;;;;;;;;;-144.47;100.00;61586.06;5028037;28;19923;-78
2023/01/04 12:25:38;;;;;;;;;;;;;;;-144.47;100.00;61586.06;5026931;28;19921;-79
2023/01/04 12:28:03;;;;;;;;;;;;;;;-144.47;100.00;61586.06;5027528;28;20012;-79
2023/01/04 12:30:32;;;;;;;;;;;;;;;-144.47;100.00;61586.06;5028142;28;19964;-78
2023/01/04 12:32:57;;;;;;;;;;;;;;;-144.47;100.00;61586.06;5022321;28;19956;-81
2023/01/04 12:35:46;;;;;;;;;;;;;;;-144.47;100.00;61586.06;5022663;28;19952;-79
2023/01/04 12:38:11;;;;;;;;;;;;;;;-144.47;100.00;61586.06;5017425;28;19918;-81
2023/01/04 12:40:45;;;;;;;;;;;;;;;-144.47;100.00;61586.06;5024692;28;19917;-82
2023/01/04 12:43:13;;;;;;;;;;;;;;;-144.47;100.00;61586.06;5024242;28;19917;-81
2023/01/04 12:45:39;;;;;;;;;;;;;;;-144.47;100.00;61586.06;5024111;28;19913;-78
2023/01/04 12:51:26;;;;;;;;;;;;;;;-144.47;100.00;61586.06;5017942;28;19931;-80
2023/01/04 12:53:59;;;;;;;;;;;;;;;-144.47;100.00;61586.06;5023069;28;19917;-81
2023/01/04 12:56:57;;;;;;;;;;;;;;;-144.47;100.00;61586.06;5022323;28;19956;-80
2023/01/04 12:59:46;;;;;;;;;;;;;;;-144.47;100.00;61586.06;5019908;28;19975;-80
2023/01/04 13:02:16;;;;;;;;;;;;;;;-144.47;100.00;61586.06;5011163;28;19971;-81
2023/01/04 13:04:42;;;;;;;;;;;;;;;-144.47;100.00;61586.06;5017223;28;19928;-80
2023/01/04 13:07:12;;;;;;;;;;;;;;;-144.47;100.00;61586.06;5022945;28;20377;-79
2023/01/04 13:09:40;;;;;;;;;;;;;;;-144.47;100.00;61586.06;5021925;28;19917;-81
2023/01/04 13:12:06;;;;;;;;;;;;;;;-144.47;100.00;61586.06;5023259;28;20096;-81
2023/01/04 13:14:43;;;;;;;;;;;;;;;-144.47;100.00;61586.06;5024603;28;20043;-79
2023/01/04 13:17:08;;;;;;;;;;;;;;;-144.47;100.00;61586.06;5020961;28;19921;-79